Аэропорт: Курск-Восточный . Курск

ICAO: UUOK

METAR:
2018/07/16 19:00
UUOK 161900Z 26002MPS 9000 -SHRA BKN009 OVC030CB 18/18 Q1001 R30/290150 NOSIG RMK QFE733/0977
METAR:
Информация по данной станции не доступна